Station Historical Data
 
Daily Summary for September 23, 2018 Units:  English    Metric   Both
« Previous Day
Next Day »
Daily Weekly Monthly Yearly Custom
  Current: High: Low: Average:
Temperature: 56.3 °F TemperatureF °F 55.9 °F 56.5 °F
Dew Point: 54.9 °F DewpointF °F 54.2 °F 54.1 °F
Humidity: 95% Humidity% 88% 91%
Wind Speed: 0mph WindSpeedMPHmph 0mph 1mph
Wind Gust: 0mph WindSpeedGustMPHmph - -
WindCalm - - South
Pressure: 30.20 in PressureIn in 30.16 in -
Precipitation: 0.04 in      
Historical Graphs
 
 
Tabular Data for September 23, 2018
Time Temperature Dew Point Pressure Wind Wind Speed Wind Gust Humidity Rainfall Rate (Hourly) solar Conditions
TemperatureF °F DewpointF °F PressureIn in Calm     Humidity% HourlyPrecipIn in SoftwareType W/m2 Conditions
00:04 57.5 °F 54.6 °F 30.18 in NW 1 mph 3.5 mph 90% 0 in WeatherDisplay:10.37 W/m2 CLR
00:09 57.7 °F 54.5 °F 30.18 in NW 1.9 mph 3.5 mph 89% 0 in WeatherDisplay:10.37 W/m2 CLR
00:14 57.7 °F 54.5 °F 30.18 in NW 2.5 mph 3.5 mph 89% 0 in WeatherDisplay:10.37 W/m2 CLR
00:19 57.6 °F 54.4 °F 30.18 in NW 0.9 mph 3.5 mph 89% 0 in WeatherDisplay:10.37 W/m2 CLR
00:24 57.7 °F 54.5 °F 30.18 in NNE 1.4 mph 2.3 mph 89% 0 in WeatherDisplay:10.37 W/m2 CLR
00:29 57.6 °F 54.7 °F 30.18 in NNE 1.2 mph 2.3 mph 90% 0 in WeatherDisplay:10.37 W/m2 CLR
00:34 57.6 °F 54.7 °F 30.19 in NNE 1.6 mph 2.3 mph 90% 0 in WeatherDisplay:10.37 W/m2 CLR
00:39 57.6 °F 54.4 °F 30.18 in NNE 1 mph 2.3 mph 89% 0 in WeatherDisplay:10.37 W/m2 CLR
00:44 57.6 °F 54.7 °F 30.19 in WNW 1.4 mph 1.2 mph 90% 0 in WeatherDisplay:10.37 W/m2 CLR
00:49 57.7 °F 54.5 °F 30.19 in WNW 1.3 mph 2.3 mph 89% 0 in WeatherDisplay:10.37 W/m2 CLR
00:54 57.7 °F 54.8 °F 30.19 in WNW 1.7 mph 3.5 mph 90% 0 in WeatherDisplay:10.37 W/m2 CLR
00:59 57.7 °F 54.8 °F 30.18 in WNW 1 mph 2.3 mph 90% 0 in WeatherDisplay:10.37 W/m2 CLR
01:04 57.8 °F 54.6 °F 30.18 in WNW 1.3 mph 2.3 mph 89% 0 in WeatherDisplay:10.37 W/m2 CLR
01:09 57.7 °F 54.8 °F 30.18 in WNW 0.9 mph 1.2 mph 90% 0 in WeatherDisplay:10.37 W/m2 CLR
01:14 57.6 °F 54.7 °F 30.18 in WNW 2.1 mph 3.5 mph 90% 0 in WeatherDisplay:10.37 W/m2 CLR
01:19 57.8 °F 54.6 °F 30.18 in WNW 0.7 mph 2.3 mph 89% 0 in WeatherDisplay:10.37 W/m2 CLR
01:24 57.8 °F 54.6 °F 30.18 in WNW 2 mph 3.5 mph 89% 0 in WeatherDisplay:10.37 W/m2 CLR
01:29 57.9 °F 54.7 °F 30.18 in North 1.9 mph 4.6 mph 89% 0 in WeatherDisplay:10.37 W/m2 CLR
01:34 57.9 °F 54.4 °F 30.18 in WNW 1.5 mph 2.3 mph 88% 0 in WeatherDisplay:10.37 W/m2 CLR
01:39 58 °F 54.5 °F 30.18 in North 0.8 mph 2.3 mph 88% 0 in WeatherDisplay:10.37 W/m2 CLR
01:44 58 °F 54.8 °F 30.18 in North 0.8 mph 1.2 mph 89% 0 in WeatherDisplay:10.37 W/m2 CLR
01:49 58 °F 54.5 °F 30.18 in North 2.1 mph 3.5 mph 88% 0 in WeatherDisplay:10.37 W/m2 CLR
01:54 57.9 °F 54.7 °F 30.18 in NW 2 mph 3.5 mph 89% 0 in WeatherDisplay:10.37 W/m2 CLR
01:59 57.8 °F 54.6 °F 30.18 in East 0.7 mph 2.3 mph 89% 0 in WeatherDisplay:10.37 W/m2 CLR
02:04 57.8 °F 54.3 °F 30.17 in Calm   2.3 mph 88% 0 in WeatherDisplay:10.37 W/m2 SCT
02:09 57.7 °F 54.5 °F 30.18 in East 1 mph 2.3 mph 89% 0 in WeatherDisplay:10.37 W/m2 SCT
02:14 57.6 °F 54.4 °F 30.18 in East 0.4 mph 1.2 mph 89% 0 in WeatherDisplay:10.37 W/m2 SCT
02:19 57.5 °F 54.6 °F 30.17 in Calm     90% 0 in WeatherDisplay:10.37 W/m2 SCT
02:24 57.5 °F 54.9 °F 30.18 in Calm     91% 0 in WeatherDisplay:10.37 W/m2 SCT
02:29 57.4 °F 55.1 °F 30.18 in Calm     92% 0 in WeatherDisplay:10.37 W/m2 SCT
02:34 57.3 °F 55 °F 30.18 in East 1.1 mph   92% 0 in WeatherDisplay:10.37 W/m2 SCT
02:39 57.4 °F 54.8 °F 30.18 in WNW 0.7 mph 2.3 mph 91% 0 in WeatherDisplay:10.37 W/m2 SCT
02:44 57.5 °F 54.6 °F 30.18 in North 2.5 mph 2.3 mph 90% 0 in WeatherDisplay:10.37 W/m2 SCT
02:49 57.5 °F 54.6 °F 30.18 in NNE 1.7 mph 3.5 mph 90% 0 in WeatherDisplay:10.37 W/m2 SCT
02:54 57.6 °F 54.7 °F 30.17 in NE 2.3 mph 3.5 mph 90% 0 in WeatherDisplay:10.37 W/m2 SCT
02:59 57.5 °F 54.6 °F 30.17 in North 2.6 mph 3.5 mph 90% 0 in WeatherDisplay:10.37 W/m2 SCT
03:04 57.5 °F 54.6 °F 30.17 in NW 2.7 mph 3.5 mph 90% 0 in WeatherDisplay:10.37 W/m2 BKN
03:09 57.5 °F 54.3 °F 30.18 in WSW 2.3 mph 3.5 mph 89% 0 in WeatherDisplay:10.37 W/m2 BKN
03:14 57.6 °F 54.4 °F 30.18 in WSW 2.1 mph 3.5 mph 89% 0 in WeatherDisplay:10.37 W/m2 BKN
03:19 57.6 °F 54.4 °F 30.18 in WSW 0.5 mph 1.2 mph 89% 0 in WeatherDisplay:10.37 W/m2 BKN
03:24 57.5 °F 54.6 °F 30.18 in WSW 1.4 mph 3.5 mph 90% 0 in WeatherDisplay:10.37 W/m2 BKN
03:29 57.5 °F 54.6 °F 30.19 in WSW 0.9 mph 2.3 mph 90% 0 in WeatherDisplay:10.37 W/m2 BKN
03:34 57.4 °F 54.5 °F 30.19 in WSW 1.4 mph 2.3 mph 90% 0 in WeatherDisplay:10.37 W/m2 BKN
03:39 57.3 °F 54.7 °F 30.18 in WSW 1.5 mph 2 mph 91% 0 in WeatherDisplay:10.37 W/m2 BKN
03:44 57.3 °F 55 °F 30.19 in WSW 1.5 mph 2.3 mph 92% 0 in WeatherDisplay:10.37 W/m2 BKN
03:49 57.1 °F 54.5 °F 30.18 in ENE 2.2 mph 2.3 mph 91% 0 in WeatherDisplay:10.37 W/m2 BKN
03:54 57.1 °F 54.5 °F 30.19 in ENE 0.5 mph   91% 0 in WeatherDisplay:10.37 W/m2 BKN
03:59 57.2 °F 54.3 °F 30.18 in ENE 0.6 mph 1.2 mph 90% 0 in WeatherDisplay:10.37 W/m2 BKN
04:04 57.1 °F 54.5 °F 30.18 in ENE 0.7 mph   91% 0 in WeatherDisplay:10.37 W/m2 SCT
04:09 57.1 °F 54.8 °F 30.18 in ENE 0.8 mph 1.2 mph 92% 0 in WeatherDisplay:10.37 W/m2 SCT
04:14 57 °F 54.7 °F 30.17 in ENE 1.5 mph 3.5 mph 92% 0 in WeatherDisplay:10.37 W/m2 SCT
04:19 56.9 °F 54.6 °F 30.19 in ENE 0.9 mph 2.3 mph 92% 0 in WeatherDisplay:10.37 W/m2 SCT
04:24 57 °F 54.4 °F 30.19 in ENE 1.8 mph 2.3 mph 91% 0 in WeatherDisplay:10.37 W/m2 SCT
04:29 57.2 °F 54.3 °F 30.19 in SSW 1.6 mph 2.3 mph 90% 0 in WeatherDisplay:10.37 W/m2 SCT
04:34 57.1 °F 54.2 °F 30.19 in SSW 0.2 mph   90% 0 in WeatherDisplay:10.37 W/m2 SCT
04:39 57 °F 54.4 °F 30.18 in Calm     91% 0 in WeatherDisplay:10.37 W/m2 SCT
04:44 56.9 °F 54.6 °F 30.19 in SSW 0.6 mph   92% 0 in WeatherDisplay:10.37 W/m2 SCT
04:49 56.8 °F 54.5 °F 30.19 in SSW 1.2 mph 2.3 mph 92% 0 in WeatherDisplay:10.37 W/m2 SCT
04:54 56.8 °F 54.5 °F 30.18 in ENE 2.1 mph 2.3 mph 92% 0 in WeatherDisplay:10.37 W/m2 SCT
04:59 56.9 °F 54.3 °F 30.19 in ENE 1.5 mph 2.3 mph 91% 0 in WeatherDisplay:10.37 W/m2 SCT
05:04 57 °F 54.4 °F 30.18 in North 2.4 mph 3.5 mph 91% 0 in WeatherDisplay:10.37 W/m2 CLR
05:09 57 °F 54.4 °F 30.18 in NNE 1.9 mph 2.3 mph 91% 0 in WeatherDisplay:10.37 W/m2 CLR
05:14 57 °F 54.4 °F 30.19 in North 1 mph 1.2 mph 91% 0 in WeatherDisplay:10.37 W/m2 CLR
05:19 57.1 °F 54.2 °F 30.19 in NNW 1.3 mph 1.2 mph 90% 0 in WeatherDisplay:10.37 W/m2 CLR
05:24 57.3 °F 54.4 °F 30.19 in NNW 1.3 mph 2.3 mph 90% 0 in WeatherDisplay:10.37 W/m2 CLR
05:29 57.1 °F 54.5 °F 30.19 in NNW 0.9 mph 2.3 mph 91% 0 in WeatherDisplay:10.37 W/m2 CLR
05:34 57 °F 54.4 °F 30.18 in NNW 1.7 mph 2.3 mph 91% 0 in WeatherDisplay:10.37 W/m2 CLR
05:39 57.1 °F 54.8 °F 30.18 in North 1 mph 1.2 mph 92% 0 in WeatherDisplay:10.37 W/m2 CLR
05:44 56.9 °F 54.6 °F 30.17 in North 1.8 mph 2.3 mph 92% 0 in WeatherDisplay:10.37 W/m2 CLR
05:49 56.9 °F 54.6 °F 30.17 in NE 0.4 mph 2.3 mph 92% 0 in WeatherDisplay:10.37 W/m2 CLR
05:54 56.9 °F 54.6 °F 30.18 in North 3.3 mph 3.5 mph 92% 0 in WeatherDisplay:10.37 W/m2 CLR
05:59 57 °F 54.7 °F 30.18 in NE 1.3 mph 4.6 mph 92% 0 in WeatherDisplay:10.37 W/m2 CLR
06:04 56.9 °F 54.3 °F 30.18 in NNW 1.4 mph 3.5 mph 91% 0 in WeatherDisplay:10.37 W/m2 -RA
06:09 56.9 °F 54.6 °F 30.18 in NNW 1.1 mph 2 mph 92% 0 in WeatherDisplay:10.37 W/m2 -RA
06:14 56.9 °F 54.6 °F 30.18 in Calm   1.2 mph 92% 0 in WeatherDisplay:10.37 W/m2 -RA
06:19 56.8 °F 54.5 °F 30.18 in NNW 1.9 mph 3.5 mph 92% 0 in WeatherDisplay:10.37 W/m2 -RA
06:24 56.8 °F 54.5 °F 30.18 in ENE 0.9 mph 1.2 mph 92% 0 in WeatherDisplay:10.37 W/m2 -RA
06:29 56.7 °F 54.7 °F 30.17 in Calm     93% 0 in WeatherDisplay:10.37 W/m2 -RA
06:34 56.5 °F 54.5 °F 30.16 in ENE 1.2 mph 2.3 mph 93% 0.01 in WeatherDisplay:10.37 W/m2 -RA
06:39 56.3 °F 54.3 °F 30.16 in ESE 0.4 mph 2.3 mph 93% 0.01 in WeatherDisplay:10.37 W/m2 -RA
06:44 56.1 °F 54.4 °F 30.16 in ESE 1 mph 2.3 mph 94% 0.01 in WeatherDisplay:10.37 W/m2 -RA
06:49 56.1 °F 54.4 °F 30.17 in Calm     94% 0.01 in WeatherDisplay:10.37 W/m2 -RA
06:54 56.1 °F 54.4 °F 30.18 in Calm     94% 0.01 in WeatherDisplay:10.37 W/m2 -RA
06:59 56 °F 54.3 °F 30.18 in Calm     94% 0.02 in WeatherDisplay:10.37 W/m2 -RA
07:04 56.1 °F 54.7 °F 30.18 in Calm     95% 0.02 in WeatherDisplay:10.37 W/m2 -RA
07:09 56 °F 54.6 °F 30.18 in Calm     95% 0.02 in WeatherDisplay:10.37 W/m2 -RA
07:14 56 °F 54.6 °F 30.19 in ESE 1.2 mph   95% 0.02 in WeatherDisplay:10.37 W/m2 -RA
07:19 55.9 °F 54.5 °F 30.19 in ESE 1 mph 2.3 mph 95% 0.02 in WeatherDisplay:10.37 W/m2 -RA
07:24 56 °F 54.6 °F 30.19 in Calm     95% 0.02 in WeatherDisplay:10.37 W/m2 -RA
07:29 56 °F 54.6 °F 30.20 in ESE 0.5 mph 2.3 mph 95% 0.02 in WeatherDisplay:10.37 W/m2 -RA
07:34 56.1 °F 54.7 °F 30.20 in Calm     95% 0.01 in WeatherDisplay:10.37 W/m2 -RA
07:39 56.2 °F 54.8 °F 30.19 in Calm     95% 0.01 in WeatherDisplay:10.37 W/m2 -RA
07:44 56.3 °F 54.9 °F 30.19 in Calm     95% 0.01 in WeatherDisplay:10.37 W/m2 -RA
07:49 56.3 °F 54.9 °F 30.19 in NNE 2.3 mph   95% 0.01 in WeatherDisplay:10.37 W/m2 -RA
07:54 56.3 °F 54.9 °F 30.19 in Calm     95% 0.01 in WeatherDisplay:10.37 W/m2 -RA
07:59 56.4 °F 55 °F 30.19 in Calm     95% 0.01 in WeatherDisplay:10.37 W/m2 -RA
08:04 56.4 °F 55 °F 30.19 in Calm     95% 0.01 in WeatherDisplay:10.37 W/m2 -RA
08:09 56.3 °F 54.9 °F 30.19 in Calm     95% 0.01 in WeatherDisplay:10.37 W/m2 -RA
08:14 56.4 °F 55 °F 30.19 in Calm     95% 0.01 in WeatherDisplay:10.37 W/m2 -RA
08:19 56.4 °F 55 °F 30.19 in Calm     95% 0.01 in WeatherDisplay:10.37 W/m2 -RA
08:24 56.4 °F 55 °F 30.20 in Calm     95% 0.01 in WeatherDisplay:10.37 W/m2 -RA
08:29 56.4 °F 55 °F 30.20 in NNE 0.1 mph 1.2 mph 95% 0.01 in WeatherDisplay:10.37 W/m2 -RA
08:34 56.4 °F 55 °F 30.20 in Calm     95% 0.01 in WeatherDisplay:10.37 W/m2 -RA
08:39 56.4 °F 55 °F 30.20 in Calm     95% 0.01 in WeatherDisplay:10.37 W/m2 -RA
08:44 56.4 °F 55 °F 30.20 in Calm     95% 0.01 in WeatherDisplay:10.37 W/m2 -RA
08:49 56.5 °F 55.1 °F 30.20 in Calm     95% 0.01 in WeatherDisplay:10.37 W/m2 -RA
08:54 56.5 °F 55.1 °F 30.20 in Calm     95% 0.01 in WeatherDisplay:10.37 W/m2 -RA
08:59 56.4 °F 55 °F 30.20 in Calm     95% 0 in WeatherDisplay:10.37 W/m2 -RA
09:04 56.3 °F 54.9 °F 30.20 in Calm     95% 0.01 in WeatherDisplay:10.37 W/m2 -RA
09:09 56.3 °F 54.9 °F 30.20 in Calm     95% 0.01 in WeatherDisplay:10.37 W/m2 -RA
East Vincent, PA, USA
Compliments of Weather Underground - 2.5 mb